sensor_id;sensor_type;location;lat;lon;timestamp;pressure;altitude;pressure_sealevel;temperature;humidity
57024;BME280;42916;54.346;18.562;2023-05-20T00:00:46;101820.02;;;9.39;91.53
57024;BME280;42916;54.346;18.562;2023-05-20T00:03:19;101818.39;;;9.41;91.68
57024;BME280;42916;54.346;18.562;2023-05-20T00:05:45;101811.56;;;9.42;91.96
57024;BME280;42916;54.346;18.562;2023-05-20T00:08:11;101808.48;;;9.44;91.57
57024;BME280;42916;54.346;18.562;2023-05-20T00:10:38;101805.48;;;9.42;91.84
57024;BME280;42916;54.346;18.562;2023-05-20T00:13:04;101807.90;;;9.40;91.59
57024;BME280;42916;54.346;18.562;2023-05-20T00:15:32;101808.50;;;9.37;91.83
57024;BME280;42916;54.346;18.562;2023-05-20T00:18:01;101803.95;;;9.34;91.85
57024;BME280;42916;54.346;18.562;2023-05-20T00:20:29;101800.61;;;9.34;91.91
57024;BME280;42916;54.346;18.562;2023-05-20T00:22:55;101803.52;;;9.32;91.96
57024;BME280;42916;54.346;18.562;2023-05-20T00:25:21;101806.09;;;9.33;91.98
57024;BME280;42916;54.346;18.562;2023-05-20T00:27:47;101804.75;;;9.35;92.10
57024;BME280;42916;54.346;18.562;2023-05-20T00:30:13;101807.63;;;9.34;92.22
57024;BME280;42916;54.346;18.562;2023-05-20T00:32:39;101807.09;;;9.32;92.35
57024;BME280;42916;54.346;18.562;2023-05-20T00:35:06;101804.38;;;9.31;92.54
57024;BME280;42916;54.346;18.562;2023-05-20T00:37:32;101805.42;;;9.32;92.64
57024;BME280;42916;54.346;18.562;2023-05-20T00:39:58;101811.64;;;9.34;92.76
57024;BME280;42916;54.346;18.562;2023-05-20T00:42:26;101803.41;;;9.34;92.62
57024;BME280;42916;54.346;18.562;2023-05-20T00:44:53;101799.48;;;9.33;92.56
57024;BME280;42916;54.346;18.562;2023-05-20T00:47:33;101798.52;;;9.33;92.90
57024;BME280;42916;54.346;18.562;2023-05-20T00:50:01;101796.51;;;9.35;92.77
57024;BME280;42916;54.346;18.562;2023-05-20T00:52:30;101794.10;;;9.33;92.64
57024;BME280;42916;54.346;18.562;2023-05-20T00:54:57;101797.66;;;9.32;93.00
57024;BME280;42916;54.346;18.562;2023-05-20T00:57:24;101802.83;;;9.31;93.13
57024;BME280;42916;54.346;18.562;2023-05-20T00:59:51;101804.70;;;9.33;93.25
57024;BME280;42916;54.346;18.562;2023-05-20T01:02:17;101806.95;;;9.35;92.95
57024;BME280;42916;54.346;18.562;2023-05-20T01:04:44;101808.00;;;9.34;92.81
57024;BME280;42916;54.346;18.562;2023-05-20T01:07:16;101809.55;;;9.36;92.64
57024;BME280;42916;54.346;18.562;2023-05-20T01:09:43;101799.46;;;9.39;92.26
57024;BME280;42916;54.346;18.562;2023-05-20T01:12:17;101803.42;;;9.41;92.45
57024;BME280;42916;54.346;18.562;2023-05-20T01:14:48;101800.13;;;9.41;92.23
57024;BME280;42916;54.346;18.562;2023-05-20T01:17:18;101797.83;;;9.39;92.33
57024;BME280;42916;54.346;18.562;2023-05-20T01:19:46;101797.52;;;9.38;92.30
57024;BME280;42916;54.346;18.562;2023-05-20T01:22:14;101794.21;;;9.37;92.15
57024;BME280;42916;54.346;18.562;2023-05-20T01:24:44;101793.17;;;9.35;92.14
57024;BME280;42916;54.346;18.562;2023-05-20T01:27:11;101793.71;;;9.35;91.91
57024;BME280;42916;54.346;18.562;2023-05-20T01:29:41;101795.39;;;9.35;91.87
57024;BME280;42916;54.346;18.562;2023-05-20T01:32:16;101792.11;;;9.36;92.23
57024;BME280;42916;54.346;18.562;2023-05-20T01:34:44;101794.05;;;9.37;91.99
57024;BME280;42916;54.346;18.562;2023-05-20T01:37:12;101792.96;;;9.35;92.06
57024;BME280;42916;54.346;18.562;2023-05-20T01:39:39;101795.95;;;9.36;92.08
57024;BME280;42916;54.346;18.562;2023-05-20T01:42:07;101790.20;;;9.36;91.59
57024;BME280;42916;54.346;18.562;2023-05-20T01:44:34;101787.20;;;9.34;91.86
57024;BME280;42916;54.346;18.562;2023-05-20T01:47:01;101780.38;;;9.33;91.71
57024;BME280;42916;54.346;18.562;2023-05-20T01:49:27;101782.27;;;9.33;91.62
57024;BME280;42916;54.346;18.562;2023-05-20T01:51:53;101778.72;;;9.32;91.27
57024;BME280;42916;54.346;18.562;2023-05-20T01:54:19;101776.80;;;9.32;91.33
57024;BME280;42916;54.346;18.562;2023-05-20T01:56:46;101775.97;;;9.33;91.40
57024;BME280;42916;54.346;18.562;2023-05-20T01:59:12;101773.84;;;9.32;91.50
57024;BME280;42916;54.346;18.562;2023-05-20T02:01:38;101773.80;;;9.33;91.38
57024;BME280;42916;54.346;18.562;2023-05-20T02:04:04;101775.00;;;9.33;91.00
57024;BME280;42916;54.346;18.562;2023-05-20T02:06:30;101772.86;;;9.34;91.05
57024;BME280;42916;54.346;18.562;2023-05-20T02:08:56;101770.10;;;9.34;90.75
57024;BME280;42916;54.346;18.562;2023-05-20T02:11:22;101771.48;;;9.35;90.86
57024;BME280;42916;54.346;18.562;2023-05-20T02:13:49;101774.36;;;9.38;91.01
57024;BME280;42916;54.346;18.562;2023-05-20T02:16:16;101774.77;;;9.40;90.90
57024;BME280;42916;54.346;18.562;2023-05-20T02:18:42;101772.52;;;9.40;90.67
57024;BME280;42916;54.346;18.562;2023-05-20T02:21:09;101771.05;;;9.39;90.18
57024;BME280;42916;54.346;18.562;2023-05-20T02:23:36;101769.30;;;9.39;90.49
57024;BME280;42916;54.346;18.562;2023-05-20T02:26:04;101770.39;;;9.39;89.99
57024;BME280;42916;54.346;18.562;2023-05-20T02:28:30;101773.19;;;9.39;90.12
57024;BME280;42916;54.346;18.562;2023-05-20T02:30:56;101765.20;;;9.41;89.97
57024;BME280;42916;54.346;18.562;2023-05-20T02:33:22;101767.81;;;9.43;90.16
57024;BME280;42916;54.346;18.562;2023-05-20T02:35:48;101762.69;;;9.43;89.71
57024;BME280;42916;54.346;18.562;2023-05-20T02:38:14;101764.31;;;9.44;89.90
57024;BME280;42916;54.346;18.562;2023-05-20T02:40:44;101766.23;;;9.43;89.93
57024;BME280;42916;54.346;18.562;2023-05-20T02:43:10;101765.86;;;9.41;89.63
57024;BME280;42916;54.346;18.562;2023-05-20T02:45:36;101763.98;;;9.40;89.63
57024;BME280;42916;54.346;18.562;2023-05-20T02:48:02;101768.70;;;9.42;89.53
57024;BME280;42916;54.346;18.562;2023-05-20T02:50:30;101769.83;;;9.43;89.67
57024;BME280;42916;54.346;18.562;2023-05-20T02:52:56;101768.82;;;9.42;89.69
57024;BME280;42916;54.346;18.562;2023-05-20T02:55:22;101766.45;;;9.42;89.52
57024;BME280;42916;54.346;18.562;2023-05-20T02:57:48;101763.73;;;9.42;89.34
57024;BME280;42916;54.346;18.562;2023-05-20T03:00:14;101760.09;;;9.42;89.58
57024;BME280;42916;54.346;18.562;2023-05-20T03:02:42;101762.48;;;9.45;89.36
57024;BME280;42916;54.346;18.562;2023-05-20T03:05:08;101760.12;;;9.47;89.48
57024;BME280;42916;54.346;18.562;2023-05-20T03:07:35;101761.30;;;9.49;89.42
57024;BME280;42916;54.346;18.562;2023-05-20T03:10:01;101761.30;;;9.48;89.42
57024;BME280;42916;54.346;18.562;2023-05-20T03:12:29;101756.35;;;9.49;89.25
57024;BME280;42916;54.346;18.562;2023-05-20T03:14:55;101757.86;;;9.50;89.44
57024;BME280;42916;54.346;18.562;2023-05-20T03:17:23;101758.36;;;9.51;89.09
57024;BME280;42916;54.346;18.562;2023-05-20T03:19:49;101758.80;;;9.53;89.24
57024;BME280;42916;54.346;18.562;2023-05-20T03:22:16;101762.80;;;9.56;89.06
57024;BME280;42916;54.346;18.562;2023-05-20T03:24:43;101760.04;;;9.57;89.32
57024;BME280;42916;54.346;18.562;2023-05-20T03:27:12;101757.45;;;9.59;89.18
57024;BME280;42916;54.346;18.562;2023-05-20T03:29:38;101761.33;;;9.60;89.14
57024;BME280;42916;54.346;18.562;2023-05-20T03:32:04;101760.54;;;9.60;88.84
57024;BME280;42916;54.346;18.562;2023-05-20T03:34:31;101757.27;;;9.62;88.82
57024;BME280;42916;54.346;18.562;2023-05-20T03:36:59;101756.99;;;9.65;88.80
57024;BME280;42916;54.346;18.562;2023-05-20T03:39:25;101763.38;;;9.68;88.96
57024;BME280;42916;54.346;18.562;2023-05-20T03:41:51;101760.11;;;9.71;88.50
57024;BME280;42916;54.346;18.562;2023-05-20T03:44:17;101760.86;;;9.72;88.68
57024;BME280;42916;54.346;18.562;2023-05-20T03:46:44;101766.20;;;9.73;88.43
57024;BME280;42916;54.346;18.562;2023-05-20T03:49:11;101763.26;;;9.75;88.56
57024;BME280;42916;54.346;18.562;2023-05-20T03:51:37;101758.86;;;9.77;88.33
57024;BME280;42916;54.346;18.562;2023-05-20T03:54:08;101761.82;;;9.81;88.18
57024;BME280;42916;54.346;18.562;2023-05-20T03:56:34;101766.27;;;9.85;88.12
57024;BME280;42916;54.346;18.562;2023-05-20T03:59:01;101762.70;;;9.89;88.13
57024;BME280;42916;54.346;18.562;2023-05-20T04:01:27;101765.84;;;9.92;88.10
57024;BME280;42916;54.346;18.562;2023-05-20T04:03:54;101764.55;;;9.95;88.18
57024;BME280;42916;54.346;18.562;2023-05-20T04:06:20;101763.70;;;9.97;87.90
57024;BME280;42916;54.346;18.562;2023-05-20T04:08:48;101765.49;;;10.00;87.73
57024;BME280;42916;54.346;18.562;2023-05-20T04:11:14;101764.83;;;10.05;87.87
57024;BME280;42916;54.346;18.562;2023-05-20T04:13:41;101767.21;;;10.10;87.92
57024;BME280;42916;54.346;18.562;2023-05-20T04:16:07;101770.81;;;10.17;87.64
57024;BME280;42916;54.346;18.562;2023-05-20T04:18:33;101769.23;;;10.21;87.70
57024;BME280;42916;54.346;18.562;2023-05-20T04:21:04;101772.46;;;10.24;87.57
57024;BME280;42916;54.346;18.562;2023-05-20T04:23:30;101770.70;;;10.27;87.84
57024;BME280;42916;54.346;18.562;2023-05-20T04:25:56;101770.09;;;10.30;87.59
57024;BME280;42916;54.346;18.562;2023-05-20T04:28:28;101766.01;;;10.33;87.64
57024;BME280;42916;54.346;18.562;2023-05-20T04:31:00;101766.77;;;10.38;87.59
57024;BME280;42916;54.346;18.562;2023-05-20T04:33:31;101763.04;;;10.45;87.41
57024;BME280;42916;54.346;18.562;2023-05-20T04:35:58;101761.86;;;10.52;87.67
57024;BME280;42916;54.346;18.562;2023-05-20T04:38:24;101762.20;;;10.60;87.72
57024;BME280;42916;54.346;18.562;2023-05-20T04:40:58;101762.84;;;10.69;87.83
57024;BME280;42916;54.346;18.562;2023-05-20T04:43:25;101765.04;;;10.77;87.31
57024;BME280;42916;54.346;18.562;2023-05-20T04:45:55;101758.86;;;10.79;87.18
57024;BME280;42916;54.346;18.562;2023-05-20T04:48:22;101761.94;;;10.81;86.91
57024;BME280;42916;54.346;18.562;2023-05-20T04:50:51;101762.76;;;10.84;86.65
57024;BME280;42916;54.346;18.562;2023-05-20T04:53:18;101763.60;;;10.88;86.57
57024;BME280;42916;54.346;18.562;2023-05-20T04:55:44;101764.65;;;10.92;86.57
57024;BME280;42916;54.346;18.562;2023-05-20T04:58:11;101764.33;;;10.94;86.54
57024;BME280;42916;54.346;18.562;2023-05-20T05:00:40;101763.96;;;11.02;86.71
57024;BME280;42916;54.346;18.562;2023-05-20T05:03:08;101769.55;;;11.06;86.39
57024;BME280;42916;54.346;18.562;2023-05-20T05:05:35;101770.95;;;11.07;86.12
57024;BME280;42916;54.346;18.562;2023-05-20T05:08:05;101773.95;;;11.05;85.83
57024;BME280;42916;54.346;18.562;2023-05-20T05:10:32;101775.80;;;11.05;85.94
57024;BME280;42916;54.346;18.562;2023-05-20T05:12:58;101775.55;;;11.07;85.71
57024;BME280;42916;54.346;18.562;2023-05-20T05:15:24;101773.95;;;11.09;85.96
57024;BME280;42916;54.346;18.562;2023-05-20T05:17:50;101774.30;;;11.13;86.04
57024;BME280;42916;54.346;18.562;2023-05-20T05:20:17;101776.81;;;11.17;86.20
57024;BME280;42916;54.346;18.562;2023-05-20T05:22:44;101774.70;;;11.21;86.08
57024;BME280;42916;54.346;18.562;2023-05-20T05:25:12;101780.73;;;11.23;85.80
57024;BME280;42916;54.346;18.562;2023-05-20T05:27:38;101769.05;;;11.27;85.89
57024;BME280;42916;54.346;18.562;2023-05-20T05:30:06;101772.73;;;11.34;85.86
57024;BME280;42916;54.346;18.562;2023-05-20T05:32:32;101775.11;;;11.42;85.77
57024;BME280;42916;54.346;18.562;2023-05-20T05:34:58;101776.54;;;11.45;85.52
57024;BME280;42916;54.346;18.562;2023-05-20T05:37:26;101773.42;;;11.46;85.51
57024;BME280;42916;54.346;18.562;2023-05-20T05:39:52;101770.73;;;11.47;85.61
57024;BME280;42916;54.346;18.562;2023-05-20T05:42:18;101774.14;;;11.48;85.68
57024;BME280;42916;54.346;18.562;2023-05-20T05:44:45;101771.42;;;11.48;85.64
57024;BME280;42916;54.346;18.562;2023-05-20T05:47:12;101772.90;;;11.48;85.68
57024;BME280;42916;54.346;18.562;2023-05-20T05:49:39;101775.20;;;11.51;85.74
57024;BME280;42916;54.346;18.562;2023-05-20T05:52:05;101776.91;;;11.56;86.05
57024;BME280;42916;54.346;18.562;2023-05-20T05:54:32;101776.79;;;11.59;86.04
57024;BME280;42916;54.346;18.562;2023-05-20T05:56:58;101775.47;;;11.61;86.07
57024;BME280;42916;54.346;18.562;2023-05-20T05:59:26;101777.67;;;11.63;86.05
57024;BME280;42916;54.346;18.562;2023-05-20T06:01:57;101778.41;;;11.66;86.08
57024;BME280;42916;54.346;18.562;2023-05-20T06:04:23;101780.38;;;11.68;85.91
57024;BME280;42916;54.346;18.562;2023-05-20T06:06:52;101779.24;;;11.71;85.88
57024;BME280;42916;54.346;18.562;2023-05-20T06:09:19;101779.05;;;11.72;85.76
57024;BME280;42916;54.346;18.562;2023-05-20T06:11:45;101778.53;;;11.74;85.97
57024;BME280;42916;54.346;18.562;2023-05-20T06:14:14;101771.96;;;11.77;85.86
57024;BME280;42916;54.346;18.562;2023-05-20T06:16:40;101768.96;;;11.79;85.91
57024;BME280;42916;54.346;18.562;2023-05-20T06:19:07;101765.29;;;11.80;85.91
57024;BME280;42916;54.346;18.562;2023-05-20T06:21:34;101768.96;;;11.79;85.80
57024;BME280;42916;54.346;18.562;2023-05-20T06:24:01;101767.40;;;11.79;86.00
57024;BME280;42916;54.346;18.562;2023-05-20T06:26:28;101767.20;;;11.88;86.40
57024;BME280;42916;54.346;18.562;2023-05-20T06:28:54;101768.05;;;11.99;86.10
57024;BME280;42916;54.346;18.562;2023-05-20T06:31:21;101770.44;;;12.08;86.05
57024;BME280;42916;54.346;18.562;2023-05-20T06:33:47;101772.27;;;12.23;86.62
57024;BME280;42916;54.346;18.562;2023-05-20T06:36:14;101777.65;;;12.42;86.35
57024;BME280;42916;54.346;18.562;2023-05-20T06:38:40;101779.02;;;12.59;86.14
57024;BME280;42916;54.346;18.562;2023-05-20T06:41:07;101781.98;;;12.69;85.14
57024;BME280;42916;54.346;18.562;2023-05-20T06:43:33;101783.62;;;12.73;84.81
57024;BME280;42916;54.346;18.562;2023-05-20T06:46:04;101778.77;;;12.76;84.46
57024;BME280;42916;54.346;18.562;2023-05-20T06:48:36;101779.10;;;12.78;84.49
57024;BME280;42916;54.346;18.562;2023-05-20T06:51:04;101780.64;;;12.81;84.09
57024;BME280;42916;54.346;18.562;2023-05-20T06:53:31;101780.80;;;12.83;84.01
57024;BME280;42916;54.346;18.562;2023-05-20T06:55:57;101775.23;;;12.95;84.29
57024;BME280;42916;54.346;18.562;2023-05-20T06:58:23;101772.00;;;13.06;83.94
57024;BME280;42916;54.346;18.562;2023-05-20T07:00:49;101771.60;;;13.18;83.81
57024;BME280;42916;54.346;18.562;2023-05-20T07:03:15;101769.34;;;13.22;83.08
57024;BME280;42916;54.346;18.562;2023-05-20T07:05:41;101770.62;;;13.28;82.99
57024;BME280;42916;54.346;18.562;2023-05-20T07:08:09;101765.73;;;13.36;82.99
57024;BME280;42916;54.346;18.562;2023-05-20T07:10:36;101766.61;;;13.48;83.07
57024;BME280;42916;54.346;18.562;2023-05-20T07:13:02;101766.46;;;13.55;82.70
57024;BME280;42916;54.346;18.562;2023-05-20T07:15:28;101762.40;;;13.54;81.98
57024;BME280;42916;54.346;18.562;2023-05-20T07:17:55;101763.54;;;13.54;81.82
57024;BME280;42916;54.346;18.562;2023-05-20T07:20:21;101761.83;;;13.53;81.55
57024;BME280;42916;54.346;18.562;2023-05-20T07:22:47;101763.27;;;13.55;81.62
57024;BME280;42916;54.346;18.562;2023-05-20T07:25:29;101758.98;;;13.69;81.64
57024;BME280;42916;54.346;18.562;2023-05-20T07:27:55;101754.98;;;13.85;81.94
57024;BME280;42916;54.346;18.562;2023-05-20T07:30:22;101752.85;;;14.09;81.64
57024;BME280;42916;54.346;18.562;2023-05-20T07:33:02;101758.20;;;14.17;80.42
57024;BME280;42916;54.346;18.562;2023-05-20T07:35:28;101754.52;;;14.18;79.61
57024;BME280;42916;54.346;18.562;2023-05-20T07:37:55;101753.59;;;14.23;79.62
57024;BME280;42916;54.346;18.562;2023-05-20T07:40:21;101750.48;;;14.29;79.09
57024;BME280;42916;54.346;18.562;2023-05-20T07:42:47;101746.73;;;14.28;78.43
57024;BME280;42916;54.346;18.562;2023-05-20T07:45:14;101744.45;;;14.20;78.12
57024;BME280;42916;54.346;18.562;2023-05-20T07:47:40;101744.18;;;14.17;78.26
57024;BME280;42916;54.346;18.562;2023-05-20T07:50:06;101748.36;;;14.18;78.05
57024;BME280;42916;54.346;18.562;2023-05-20T07:52:33;101750.39;;;14.19;78.15
57024;BME280;42916;54.346;18.562;2023-05-20T07:55:00;101746.59;;;14.23;78.28
57024;BME280;42916;54.346;18.562;2023-05-20T07:57:26;101752.52;;;14.27;77.80
57024;BME280;42916;54.346;18.562;2023-05-20T07:59:53;101745.63;;;14.31;77.85
57024;BME280;42916;54.346;18.562;2023-05-20T08:02:19;101745.86;;;14.41;77.99
57024;BME280;42916;54.346;18.562;2023-05-20T08:04:46;101745.44;;;14.61;78.24
57024;BME280;42916;54.346;18.562;2023-05-20T08:07:12;101742.49;;;14.75;77.58
57024;BME280;42916;54.346;18.562;2023-05-20T08:09:51;101743.70;;;14.86;77.20
57024;BME280;42916;54.346;18.562;2023-05-20T08:12:17;101741.05;;;14.89;76.43
57024;BME280;42916;54.346;18.562;2023-05-20T08:14:44;101743.02;;;14.84;75.09
57024;BME280;42916;54.346;18.562;2023-05-20T08:17:11;101741.13;;;14.90;75.30
57024;BME280;42916;54.346;18.562;2023-05-20T08:19:37;101741.00;;;15.00;74.94
57024;BME280;42916;54.346;18.562;2023-05-20T08:22:03;101741.27;;;14.96;73.59
57024;BME280;42916;54.346;18.562;2023-05-20T08:24:31;101735.61;;;14.84;73.25
57024;BME280;42916;54.346;18.562;2023-05-20T08:26:57;101732.05;;;14.69;73.13
57024;BME280;42916;54.346;18.562;2023-05-20T08:29:24;101738.67;;;14.63;73.80
57024;BME280;42916;54.346;18.562;2023-05-20T08:31:51;101737.54;;;14.62;73.98
57024;BME280;42916;54.346;18.562;2023-05-20T08:34:17;101738.39;;;14.73;74.83
57024;BME280;42916;54.346;18.562;2023-05-20T08:36:44;101741.36;;;14.91;75.05
57024;BME280;42916;54.346;18.562;2023-05-20T08:39:11;101735.18;;;15.07;74.25
57024;BME280;42916;54.346;18.562;2023-05-20T08:41:38;101733.73;;;15.02;73.02
57024;BME280;42916;54.346;18.562;2023-05-20T08:44:04;101732.93;;;14.96;72.77
57024;BME280;42916;54.346;18.562;2023-05-20T08:46:33;101733.60;;;14.89;72.89
57024;BME280;42916;54.346;18.562;2023-05-20T08:49:01;101729.78;;;14.97;73.67
57024;BME280;42916;54.346;18.562;2023-05-20T08:51:28;101732.98;;;15.15;73.21
57024;BME280;42916;54.346;18.562;2023-05-20T08:53:54;101730.72;;;15.19;72.28
57024;BME280;42916;54.346;18.562;2023-05-20T08:56:20;101727.44;;;15.15;71.81
57024;BME280;42916;54.346;18.562;2023-05-20T08:58:48;101730.90;;;15.20;72.23
57024;BME280;42916;54.346;18.562;2023-05-20T09:01:14;101731.91;;;15.30;71.76
57024;BME280;42916;54.346;18.562;2023-05-20T09:03:40;101732.23;;;15.34;71.54
57024;BME280;42916;54.346;18.562;2023-05-20T09:06:07;101734.27;;;15.34;71.19
57024;BME280;42916;54.346;18.562;2023-05-20T09:08:34;101738.13;;;15.36;70.91
57024;BME280;42916;54.346;18.562;2023-05-20T09:11:00;101731.66;;;15.40;70.75
57024;BME280;42916;54.346;18.562;2023-05-20T09:13:29;101730.91;;;15.46;70.40
57024;BME280;42916;54.346;18.562;2023-05-20T09:15:56;101730.87;;;15.56;69.84
57024;BME280;42916;54.346;18.562;2023-05-20T09:18:22;101733.23;;;15.66;70.42
57024;BME280;42916;54.346;18.562;2023-05-20T09:20:49;101732.21;;;15.75;69.60
57024;BME280;42916;54.346;18.562;2023-05-20T09:23:19;101731.78;;;15.73;68.09
57024;BME280;42916;54.346;18.562;2023-05-20T09:25:49;101732.52;;;15.61;68.14
57024;BME280;42916;54.346;18.562;2023-05-20T09:28:18;101732.85;;;15.70;69.13
57024;BME280;42916;54.346;18.562;2023-05-20T09:30:48;101728.30;;;15.94;69.54
57024;BME280;42916;54.346;18.562;2023-05-20T09:33:14;101729.88;;;16.22;69.63
57024;BME280;42916;54.346;18.562;2023-05-20T09:35:41;101725.94;;;16.49;69.32
57024;BME280;42916;54.346;18.562;2023-05-20T09:38:08;101735.95;;;16.65;68.37
57024;BME280;42916;54.346;18.562;2023-05-20T09:40:35;101732.68;;;16.78;67.49
57024;BME280;42916;54.346;18.562;2023-05-20T09:43:05;101731.60;;;16.85;67.19
57024;BME280;42916;54.346;18.562;2023-05-20T09:45:32;101730.98;;;17.10;67.58
57024;BME280;42916;54.346;18.562;2023-05-20T09:48:00;101732.65;;;17.22;66.03
57024;BME280;42916;54.346;18.562;2023-05-20T09:50:27;101730.82;;;16.99;64.75
57024;BME280;42916;54.346;18.562;2023-05-20T09:52:54;101726.23;;;16.87;64.66
57024;BME280;42916;54.346;18.562;2023-05-20T09:55:23;101728.27;;;16.75;64.48
57024;BME280;42916;54.346;18.562;2023-05-20T09:57:49;101730.54;;;16.55;64.06
57024;BME280;42916;54.346;18.562;2023-05-20T10:00:16;101727.90;;;16.48;65.48
57024;BME280;42916;54.346;18.562;2023-05-20T10:02:44;101732.35;;;16.61;65.92
57024;BME280;42916;54.346;18.562;2023-05-20T10:05:22;101735.67;;;16.58;64.54
57024;BME280;42916;54.346;18.562;2023-05-20T10:16:53;101726.53;;;15.61;64.99
57024;BME280;42916;54.346;18.562;2023-05-20T10:19:29;101731.25;;;15.47;65.30
57024;BME280;42916;54.346;18.562;2023-05-20T10:22:06;101732.33;;;15.28;65.62
57024;BME280;42916;54.346;18.562;2023-05-20T10:24:35;101736.48;;;15.07;66.15
57024;BME280;42916;54.346;18.562;2023-05-20T10:27:06;101735.10;;;14.86;66.91
57024;BME280;42916;54.346;18.562;2023-05-20T10:32:08;101732.65;;;14.62;67.80
57024;BME280;42916;54.346;18.562;2023-05-20T10:34:44;101729.32;;;14.45;67.97
57024;BME280;42916;54.346;18.562;2023-05-20T10:37:22;101724.66;;;14.28;68.46
57024;BME280;42916;54.346;18.562;2023-05-20T10:39:49;101723.31;;;14.10;69.20
57024;BME280;42916;54.346;18.562;2023-05-20T10:42:15;101722.48;;;13.98;69.96
57024;BME280;42916;54.346;18.562;2023-05-20T10:44:46;101724.52;;;13.86;70.50
57024;BME280;42916;54.346;18.562;2023-05-20T10:47:14;101727.86;;;13.72;71.32
57024;BME280;42916;54.346;18.562;2023-05-20T10:49:44;101722.73;;;13.61;71.99
57024;BME280;42916;54.346;18.562;2023-05-20T10:52:12;101720.01;;;13.48;72.68
57024;BME280;42916;54.346;18.562;2023-05-20T10:54:45;101720.77;;;13.43;73.13
57024;BME280;42916;54.346;18.562;2023-05-20T10:57:12;101713.89;;;13.45;73.74
57024;BME280;42916;54.346;18.562;2023-05-20T10:59:40;101712.84;;;13.53;74.02
57024;BME280;42916;54.346;18.562;2023-05-20T11:02:08;101709.92;;;13.63;74.33
57024;BME280;42916;54.346;18.562;2023-05-20T11:04:36;101707.90;;;13.66;73.87
57024;BME280;42916;54.346;18.562;2023-05-20T11:07:02;101701.80;;;13.71;74.24
57024;BME280;42916;54.346;18.562;2023-05-20T11:09:29;101697.29;;;13.92;74.50
57024;BME280;42916;54.346;18.562;2023-05-20T11:11:57;101690.24;;;14.12;74.32
57024;BME280;42916;54.346;18.562;2023-05-20T11:14:23;101690.75;;;14.43;74.40
57024;BME280;42916;54.346;18.562;2023-05-20T11:16:52;101687.77;;;14.76;73.75
57024;BME280;42916;54.346;18.562;2023-05-20T11:19:21;101689.20;;;15.04;72.73
57024;BME280;42916;54.346;18.562;2023-05-20T11:21:47;101691.55;;;15.25;72.19
57024;BME280;42916;54.346;18.562;2023-05-20T11:24:22;101688.95;;;15.50;71.95
57024;BME280;42916;54.346;18.562;2023-05-20T11:26:48;101690.19;;;15.87;71.75
57024;BME280;42916;54.346;18.562;2023-05-20T11:29:16;101686.34;;;16.21;70.90
57024;BME280;42916;54.346;18.562;2023-05-20T11:31:43;101685.11;;;16.41;70.28
57024;BME280;42916;54.346;18.562;2023-05-20T11:34:08;101682.23;;;16.68;69.65
57024;BME280;42916;54.346;18.562;2023-05-20T11:36:40;101679.69;;;16.90;68.06
57024;BME280;42916;54.346;18.562;2023-05-20T11:39:09;101675.08;;;16.90;66.56
57024;BME280;42916;54.346;18.562;2023-05-20T11:41:35;101676.01;;;16.90;65.38
57024;BME280;42916;54.346;18.562;2023-05-20T11:44:01;101673.52;;;17.00;65.12
57024;BME280;42916;54.346;18.562;2023-05-20T11:46:27;101669.68;;;17.10;65.07
57024;BME280;42916;54.346;18.562;2023-05-20T11:48:53;101669.20;;;17.42;65.33
57024;BME280;42916;54.346;18.562;2023-05-20T11:51:23;101669.66;;;17.73;65.33
57024;BME280;42916;54.346;18.562;2023-05-20T11:53:51;101668.34;;;18.00;64.78
57024;BME280;42916;54.346;18.562;2023-05-20T11:56:19;101676.34;;;18.23;63.34
57024;BME280;42916;54.346;18.562;2023-05-20T11:58:46;101679.79;;;18.42;62.32
57024;BME280;42916;54.346;18.562;2023-05-20T12:01:12;101678.24;;;18.51;60.99
57024;BME280;42916;54.346;18.562;2023-05-20T12:03:38;101676.48;;;18.50;60.38
57024;BME280;42916;54.346;18.562;2023-05-20T12:06:04;101673.50;;;18.48;59.73
57024;BME280;42916;54.346;18.562;2023-05-20T12:08:31;101669.59;;;18.42;59.89
57024;BME280;42916;54.346;18.562;2023-05-20T12:10:57;101671.95;;;18.42;59.55
57024;BME280;42916;54.346;18.562;2023-05-20T12:13:23;101672.13;;;18.33;58.78
57024;BME280;42916;54.346;18.562;2023-05-20T12:15:49;101672.80;;;18.11;58.40
57024;BME280;42916;54.346;18.562;2023-05-20T12:18:15;101669.37;;;17.91;58.65
57024;BME280;42916;54.346;18.562;2023-05-20T12:20:41;101670.02;;;17.70;58.37
57024;BME280;42916;54.346;18.562;2023-05-20T12:23:07;101668.64;;;17.41;58.60
57024;BME280;42916;54.346;18.562;2023-05-20T12:25:33;101656.39;;;17.15;58.97
57024;BME280;42916;54.346;18.562;2023-05-20T12:28:01;101653.95;;;16.99;59.64
57024;BME280;42916;54.346;18.562;2023-05-20T12:30:27;101654.95;;;16.90;60.28
57024;BME280;42916;54.346;18.562;2023-05-20T12:32:53;101651.63;;;16.85;60.81
57024;BME280;42916;54.346;18.562;2023-05-20T12:35:40;101649.41;;;16.65;60.37
57024;BME280;42916;54.346;18.562;2023-05-20T12:38:07;101652.91;;;16.38;60.81
57024;BME280;42916;54.346;18.562;2023-05-20T12:40:34;101650.93;;;16.24;61.42
57024;BME280;42916;54.346;18.562;2023-05-20T12:43:02;101646.59;;;16.16;61.68
57024;BME280;42916;54.346;18.562;2023-05-20T12:45:28;101642.36;;;16.02;61.93
57024;BME280;42916;54.346;18.562;2023-05-20T12:47:55;101634.36;;;15.90;62.03
57024;BME280;42916;54.346;18.562;2023-05-20T12:50:22;101633.98;;;15.74;61.96
57024;BME280;42916;54.346;18.562;2023-05-20T12:52:49;101629.02;;;15.63;62.27
57024;BME280;42916;54.346;18.562;2023-05-20T12:55:15;101629.50;;;15.57;62.68